sensor_id;sensor_type;location;lat;lon;timestamp;P1;durP1;ratioP1;P2;durP2;ratioP2
27632;SDS011;15046;50.930;13.334;2022-10-15T00:01:43;14.98;;;8.98;;
27632;SDS011;15046;50.930;13.334;2022-10-15T00:04:09;14.75;;;9.50;;
27632;SDS011;15046;50.930;13.334;2022-10-15T00:06:34;15.77;;;9.18;;
27632;SDS011;15046;50.930;13.334;2022-10-15T00:09:00;16.80;;;8.73;;
27632;SDS011;15046;50.930;13.334;2022-10-15T00:11:27;13.13;;;8.25;;
27632;SDS011;15046;50.930;13.334;2022-10-15T00:13:57;14.23;;;8.52;;
27632;SDS011;15046;50.930;13.334;2022-10-15T00:16:25;17.02;;;9.57;;
27632;SDS011;15046;50.930;13.334;2022-10-15T00:18:54;15.32;;;9.23;;
27632;SDS011;15046;50.930;13.334;2022-10-15T00:21:21;16.45;;;8.07;;
27632;SDS011;15046;50.930;13.334;2022-10-15T00:23:47;12.00;;;8.25;;
27632;SDS011;15046;50.930;13.334;2022-10-15T00:26:14;14.50;;;8.52;;
27632;SDS011;15046;50.930;13.334;2022-10-15T00:28:45;15.00;;;9.00;;
27632;SDS011;15046;50.930;13.334;2022-10-15T00:31:14;14.27;;;9.07;;
27632;SDS011;15046;50.930;13.334;2022-10-15T00:33:41;13.18;;;8.80;;
27632;SDS011;15046;50.930;13.334;2022-10-15T00:36:10;14.18;;;8.98;;
27632;SDS011;15046;50.930;13.334;2022-10-15T00:38:41;13.88;;;8.73;;
27632;SDS011;15046;50.930;13.334;2022-10-15T00:41:08;15.50;;;10.50;;
27632;SDS011;15046;50.930;13.334;2022-10-15T00:43:56;16.25;;;10.10;;
27632;SDS011;15046;50.930;13.334;2022-10-15T00:46:41;16.80;;;10.73;;
27632;SDS011;15046;50.930;13.334;2022-10-15T00:51:48;16.05;;;11.23;;
27632;SDS011;15046;50.930;13.334;2022-10-15T00:54:19;18.00;;;11.35;;
27632;SDS011;15046;50.930;13.334;2022-10-15T00:56:46;18.45;;;11.60;;
27632;SDS011;15046;50.930;13.334;2022-10-15T00:59:14;21.05;;;12.40;;
27632;SDS011;15046;50.930;13.334;2022-10-15T01:01:42;18.13;;;12.10;;
27632;SDS011;15046;50.930;13.334;2022-10-15T01:04:08;19.05;;;11.85;;
27632;SDS011;15046;50.930;13.334;2022-10-15T01:06:34;19.38;;;12.52;;
27632;SDS011;15046;50.930;13.334;2022-10-15T01:09:00;18.50;;;11.80;;
27632;SDS011;15046;50.930;13.334;2022-10-15T01:11:29;18.08;;;12.15;;
27632;SDS011;15046;50.930;13.334;2022-10-15T01:14:10;20.40;;;12.75;;
27632;SDS011;15046;50.930;13.334;2022-10-15T01:17:00;19.23;;;12.75;;
27632;SDS011;15046;50.930;13.334;2022-10-15T01:22:45;26.77;;;15.00;;
27632;SDS011;15046;50.930;13.334;2022-10-15T01:28:30;18.15;;;12.40;;
27632;SDS011;15046;50.930;13.334;2022-10-15T01:31:36;21.42;;;12.77;;
27632;SDS011;15046;50.930;13.334;2022-10-15T01:34:46;20.92;;;12.20;;
27632;SDS011;15046;50.930;13.334;2022-10-15T01:39:47;19.10;;;12.25;;
27632;SDS011;15046;50.930;13.334;2022-10-15T01:42:27;21.98;;;12.68;;
27632;SDS011;15046;50.930;13.334;2022-10-15T01:45:02;21.88;;;12.70;;
27632;SDS011;15046;50.930;13.334;2022-10-15T01:47:38;17.05;;;11.63;;
27632;SDS011;15046;50.930;13.334;2022-10-15T01:50:08;19.58;;;13.10;;
27632;SDS011;15046;50.930;13.334;2022-10-15T01:52:35;21.90;;;13.70;;
27632;SDS011;15046;50.930;13.334;2022-10-15T01:55:05;17.40;;;11.70;;
27632;SDS011;15046;50.930;13.334;2022-10-15T01:57:34;23.23;;;14.00;;
27632;SDS011;15046;50.930;13.334;2022-10-15T02:00:03;20.20;;;12.57;;
27632;SDS011;15046;50.930;13.334;2022-10-15T02:02:29;23.42;;;13.00;;
27632;SDS011;15046;50.930;13.334;2022-10-15T02:04:55;23.63;;;14.82;;
27632;SDS011;15046;50.930;13.334;2022-10-15T02:07:24;19.70;;;13.27;;
27632;SDS011;15046;50.930;13.334;2022-10-15T02:10:12;21.85;;;14.57;;
27632;SDS011;15046;50.930;13.334;2022-10-15T02:18:17;22.08;;;14.15;;
27632;SDS011;15046;50.930;13.334;2022-10-15T02:23:27;23.10;;;13.35;;
27632;SDS011;15046;50.930;13.334;2022-10-15T02:26:02;19.60;;;13.10;;
27632;SDS011;15046;50.930;13.334;2022-10-15T02:28:30;20.25;;;12.20;;
27632;SDS011;15046;50.930;13.334;2022-10-15T02:30:59;19.13;;;12.10;;
27632;SDS011;15046;50.930;13.334;2022-10-15T02:33:27;18.60;;;11.65;;
27632;SDS011;15046;50.930;13.334;2022-10-15T02:35:55;17.92;;;11.40;;
27632;SDS011;15046;50.930;13.334;2022-10-15T02:38:23;15.77;;;10.38;;
27632;SDS011;15046;50.930;13.334;2022-10-15T02:40:51;14.40;;;9.48;;
27632;SDS011;15046;50.930;13.334;2022-10-15T02:43:19;15.32;;;9.68;;
27632;SDS011;15046;50.930;13.334;2022-10-15T02:45:45;14.65;;;9.25;;
27632;SDS011;15046;50.930;13.334;2022-10-15T02:48:12;14.27;;;9.05;;
27632;SDS011;15046;50.930;13.334;2022-10-15T02:50:38;13.05;;;9.00;;
27632;SDS011;15046;50.930;13.334;2022-10-15T02:53:03;13.88;;;9.18;;
27632;SDS011;15046;50.930;13.334;2022-10-15T02:55:29;16.77;;;9.60;;
27632;SDS011;15046;50.930;13.334;2022-10-15T02:57:55;16.50;;;9.65;;
27632;SDS011;15046;50.930;13.334;2022-10-15T03:00:21;18.40;;;10.45;;
27632;SDS011;15046;50.930;13.334;2022-10-15T03:02:47;15.88;;;9.70;;
27632;SDS011;15046;50.930;13.334;2022-10-15T03:05:13;16.48;;;10.77;;
27632;SDS011;15046;50.930;13.334;2022-10-15T03:07:38;18.13;;;11.77;;
27632;SDS011;15046;50.930;13.334;2022-10-15T03:10:04;15.35;;;9.73;;
27632;SDS011;15046;50.930;13.334;2022-10-15T03:12:31;15.98;;;10.55;;
27632;SDS011;15046;50.930;13.334;2022-10-15T03:14:57;18.70;;;10.82;;
27632;SDS011;15046;50.930;13.334;2022-10-15T03:17:22;18.88;;;11.70;;
27632;SDS011;15046;50.930;13.334;2022-10-15T03:19:48;19.55;;;11.70;;
27632;SDS011;15046;50.930;13.334;2022-10-15T03:22:14;17.45;;;11.43;;
27632;SDS011;15046;50.930;13.334;2022-10-15T03:24:40;19.02;;;11.85;;
27632;SDS011;15046;50.930;13.334;2022-10-15T03:27:07;18.25;;;11.88;;
27632;SDS011;15046;50.930;13.334;2022-10-15T03:29:32;22.58;;;12.55;;
27632;SDS011;15046;50.930;13.334;2022-10-15T03:31:58;19.27;;;12.35;;
27632;SDS011;15046;50.930;13.334;2022-10-15T03:34:24;21.08;;;11.75;;
27632;SDS011;15046;50.930;13.334;2022-10-15T03:36:50;18.98;;;11.23;;
27632;SDS011;15046;50.930;13.334;2022-10-15T03:39:15;17.83;;;11.52;;
27632;SDS011;15046;50.930;13.334;2022-10-15T03:41:41;18.05;;;11.82;;
27632;SDS011;15046;50.930;13.334;2022-10-15T03:44:07;18.58;;;12.00;;
27632;SDS011;15046;50.930;13.334;2022-10-15T03:46:34;19.63;;;12.35;;
27632;SDS011;15046;50.930;13.334;2022-10-15T03:49:00;19.95;;;12.25;;
27632;SDS011;15046;50.930;13.334;2022-10-15T03:51:26;24.00;;;13.45;;
27632;SDS011;15046;50.930;13.334;2022-10-15T03:53:52;21.80;;;13.13;;
27632;SDS011;15046;50.930;13.334;2022-10-15T03:56:18;18.73;;;12.00;;
27632;SDS011;15046;50.930;13.334;2022-10-15T03:58:44;20.67;;;12.07;;
27632;SDS011;15046;50.930;13.334;2022-10-15T04:01:11;19.08;;;12.23;;
27632;SDS011;15046;50.930;13.334;2022-10-15T04:03:41;19.27;;;12.38;;
27632;SDS011;15046;50.930;13.334;2022-10-15T04:06:07;17.77;;;11.88;;
27632;SDS011;15046;50.930;13.334;2022-10-15T04:08:33;19.60;;;12.70;;
27632;SDS011;15046;50.930;13.334;2022-10-15T04:10:58;19.13;;;12.35;;
27632;SDS011;15046;50.930;13.334;2022-10-15T04:13:25;22.13;;;13.15;;
27632;SDS011;15046;50.930;13.334;2022-10-15T04:15:52;19.85;;;12.23;;
27632;SDS011;15046;50.930;13.334;2022-10-15T04:18:18;20.52;;;12.52;;
27632;SDS011;15046;50.930;13.334;2022-10-15T04:20:46;22.60;;;12.80;;
27632;SDS011;15046;50.930;13.334;2022-10-15T04:23:15;20.33;;;13.03;;
27632;SDS011;15046;50.930;13.334;2022-10-15T04:25:41;18.90;;;12.82;;
27632;SDS011;15046;50.930;13.334;2022-10-15T04:28:07;19.42;;;12.40;;
27632;SDS011;15046;50.930;13.334;2022-10-15T04:30:33;19.02;;;11.77;;
27632;SDS011;15046;50.930;13.334;2022-10-15T04:32:59;17.98;;;10.85;;
27632;SDS011;15046;50.930;13.334;2022-10-15T04:35:25;19.38;;;11.52;;
27632;SDS011;15046;50.930;13.334;2022-10-15T04:37:51;20.08;;;11.60;;
27632;SDS011;15046;50.930;13.334;2022-10-15T04:40:17;16.85;;;10.90;;
27632;SDS011;15046;50.930;13.334;2022-10-15T04:42:43;19.17;;;12.07;;
27632;SDS011;15046;50.930;13.334;2022-10-15T04:45:09;19.30;;;10.23;;
27632;SDS011;15046;50.930;13.334;2022-10-15T04:47:34;18.33;;;10.82;;
27632;SDS011;15046;50.930;13.334;2022-10-15T04:50:00;18.30;;;11.98;;
27632;SDS011;15046;50.930;13.334;2022-10-15T04:52:26;17.65;;;11.85;;
27632;SDS011;15046;50.930;13.334;2022-10-15T04:54:52;18.40;;;10.90;;
27632;SDS011;15046;50.930;13.334;2022-10-15T04:57:17;18.63;;;10.70;;
27632;SDS011;15046;50.930;13.334;2022-10-15T04:59:44;17.83;;;10.45;;
27632;SDS011;15046;50.930;13.334;2022-10-15T05:02:10;17.80;;;10.88;;
27632;SDS011;15046;50.930;13.334;2022-10-15T05:04:36;16.25;;;9.77;;
27632;SDS011;15046;50.930;13.334;2022-10-15T05:07:02;16.02;;;9.63;;
27632;SDS011;15046;50.930;13.334;2022-10-15T05:09:28;15.65;;;9.43;;
27632;SDS011;15046;50.930;13.334;2022-10-15T05:11:53;16.40;;;8.82;;
27632;SDS011;15046;50.930;13.334;2022-10-15T05:14:23;14.98;;;9.65;;
27632;SDS011;15046;50.930;13.334;2022-10-15T05:16:48;16.30;;;10.00;;
27632;SDS011;15046;50.930;13.334;2022-10-15T05:19:14;14.98;;;9.88;;
27632;SDS011;15046;50.930;13.334;2022-10-15T05:21:41;16.33;;;9.95;;
27632;SDS011;15046;50.930;13.334;2022-10-15T05:24:07;15.20;;;9.80;;
27632;SDS011;15046;50.930;13.334;2022-10-15T05:26:33;15.07;;;9.40;;
27632;SDS011;15046;50.930;13.334;2022-10-15T05:28:59;14.13;;;8.90;;
27632;SDS011;15046;50.930;13.334;2022-10-15T05:31:29;15.30;;;9.65;;
27632;SDS011;15046;50.930;13.334;2022-10-15T05:33:57;13.80;;;8.77;;
27632;SDS011;15046;50.930;13.334;2022-10-15T05:36:24;13.68;;;7.93;;
27632;SDS011;15046;50.930;13.334;2022-10-15T05:38:56;15.07;;;8.07;;
27632;SDS011;15046;50.930;13.334;2022-10-15T05:41:24;10.27;;;6.70;;
27632;SDS011;15046;50.930;13.334;2022-10-15T05:43:50;10.27;;;6.10;;
27632;SDS011;15046;50.930;13.334;2022-10-15T05:46:18;9.82;;;6.28;;
27632;SDS011;15046;50.930;13.334;2022-10-15T05:48:48;10.23;;;6.93;;
27632;SDS011;15046;50.930;13.334;2022-10-15T05:51:15;9.82;;;6.40;;
27632;SDS011;15046;50.930;13.334;2022-10-15T05:53:41;9.27;;;5.55;;
27632;SDS011;15046;50.930;13.334;2022-10-15T05:56:08;8.82;;;5.97;;
27632;SDS011;15046;50.930;13.334;2022-10-15T05:58:34;9.13;;;5.22;;
27632;SDS011;15046;50.930;13.334;2022-10-15T06:01:01;9.85;;;5.60;;
27632;SDS011;15046;50.930;13.334;2022-10-15T06:03:29;11.25;;;6.25;;
27632;SDS011;15046;50.930;13.334;2022-10-15T06:05:55;7.15;;;4.45;;
27632;SDS011;15046;50.930;13.334;2022-10-15T06:08:21;8.00;;;5.00;;
27632;SDS011;15046;50.930;13.334;2022-10-15T06:10:47;7.97;;;4.88;;
27632;SDS011;15046;50.930;13.334;2022-10-15T06:13:13;6.78;;;4.05;;
27632;SDS011;15046;50.930;13.334;2022-10-15T06:15:40;7.03;;;3.92;;
27632;SDS011;15046;50.930;13.334;2022-10-15T06:18:07;7.60;;;4.75;;
27632;SDS011;15046;50.930;13.334;2022-10-15T06:20:34;8.32;;;5.15;;
27632;SDS011;15046;50.930;13.334;2022-10-15T06:23:01;6.75;;;4.35;;
27632;SDS011;15046;50.930;13.334;2022-10-15T06:25:27;7.80;;;4.50;;
27632;SDS011;15046;50.930;13.334;2022-10-15T06:27:53;6.57;;;4.00;;
27632;SDS011;15046;50.930;13.334;2022-10-15T06:30:19;7.65;;;4.70;;
27632;SDS011;15046;50.930;13.334;2022-10-15T06:32:49;6.43;;;4.07;;
27632;SDS011;15046;50.930;13.334;2022-10-15T06:35:16;5.90;;;3.85;;
27632;SDS011;15046;50.930;13.334;2022-10-15T06:37:43;6.22;;;3.40;;
27632;SDS011;15046;50.930;13.334;2022-10-15T06:40:09;5.15;;;2.95;;
27632;SDS011;15046;50.930;13.334;2022-10-15T06:42:36;7.20;;;3.13;;
27632;SDS011;15046;50.930;13.334;2022-10-15T06:45:02;4.95;;;2.83;;
27632;SDS011;15046;50.930;13.334;2022-10-15T06:47:29;4.78;;;2.42;;
27632;SDS011;15046;50.930;13.334;2022-10-15T06:49:55;4.80;;;2.75;;
27632;SDS011;15046;50.930;13.334;2022-10-15T06:52:20;4.15;;;2.42;;
27632;SDS011;15046;50.930;13.334;2022-10-15T06:54:48;4.65;;;2.45;;
27632;SDS011;15046;50.930;13.334;2022-10-15T06:57:13;3.80;;;1.90;;
27632;SDS011;15046;50.930;13.334;2022-10-15T06:59:39;4.05;;;2.13;;
27632;SDS011;15046;50.930;13.334;2022-10-15T07:02:05;5.88;;;2.75;;
27632;SDS011;15046;50.930;13.334;2022-10-15T07:04:31;4.10;;;2.22;;
27632;SDS011;15046;50.930;13.334;2022-10-15T07:06:57;4.45;;;1.88;;
27632;SDS011;15046;50.930;13.334;2022-10-15T07:09:23;4.25;;;2.22;;
27632;SDS011;15046;50.930;13.334;2022-10-15T07:11:49;4.00;;;1.92;;
27632;SDS011;15046;50.930;13.334;2022-10-15T07:14:18;3.95;;;2.10;;
27632;SDS011;15046;50.930;13.334;2022-10-15T07:16:44;3.42;;;1.88;;
27632;SDS011;15046;50.930;13.334;2022-10-15T07:19:09;3.30;;;1.80;;
27632;SDS011;15046;50.930;13.334;2022-10-15T07:21:35;3.42;;;2.05;;
27632;SDS011;15046;50.930;13.334;2022-10-15T07:24:01;4.88;;;2.10;;
27632;SDS011;15046;50.930;13.334;2022-10-15T07:26:27;3.25;;;1.70;;
27632;SDS011;15046;50.930;13.334;2022-10-15T07:28:55;3.83;;;1.63;;
27632;SDS011;15046;50.930;13.334;2022-10-15T07:31:21;3.63;;;1.67;;
27632;SDS011;15046;50.930;13.334;2022-10-15T07:33:47;3.42;;;1.45;;
27632;SDS011;15046;50.930;13.334;2022-10-15T07:36:13;2.83;;;1.55;;
27632;SDS011;15046;50.930;13.334;2022-10-15T07:38:39;3.55;;;1.77;;
27632;SDS011;15046;50.930;13.334;2022-10-15T07:41:05;2.88;;;1.50;;
27632;SDS011;15046;50.930;13.334;2022-10-15T07:43:33;2.55;;;1.50;;
27632;SDS011;15046;50.930;13.334;2022-10-15T07:45:59;3.42;;;1.50;;
27632;SDS011;15046;50.930;13.334;2022-10-15T07:48:25;2.13;;;1.25;;
27632;SDS011;15046;50.930;13.334;2022-10-15T07:50:58;2.30;;;1.27;;
27632;SDS011;15046;50.930;13.334;2022-10-15T07:53:25;2.55;;;1.50;;
27632;SDS011;15046;50.930;13.334;2022-10-15T07:55:52;3.08;;;1.40;;
27632;SDS011;15046;50.930;13.334;2022-10-15T07:58:18;2.35;;;1.08;;
27632;SDS011;15046;50.930;13.334;2022-10-15T08:00:44;2.33;;;1.30;;
27632;SDS011;15046;50.930;13.334;2022-10-15T08:03:10;2.63;;;1.02;;
27632;SDS011;15046;50.930;13.334;2022-10-15T08:05:35;2.17;;;1.20;;
27632;SDS011;15046;50.930;13.334;2022-10-15T08:08:01;1.85;;;0.98;;
27632;SDS011;15046;50.930;13.334;2022-10-15T08:10:27;1.90;;;0.90;;
27632;SDS011;15046;50.930;13.334;2022-10-15T08:12:53;2.67;;;1.50;;
27632;SDS011;15046;50.930;13.334;2022-10-15T08:15:19;2.58;;;1.48;;
27632;SDS011;15046;50.930;13.334;2022-10-15T08:17:45;2.38;;;1.25;;
27632;SDS011;15046;50.930;13.334;2022-10-15T08:20:11;1.52;;;0.90;;
27632;SDS011;15046;50.930;13.334;2022-10-15T08:22:36;2.10;;;1.10;;
27632;SDS011;15046;50.930;13.334;2022-10-15T08:25:02;2.33;;;1.20;;
27632;SDS011;15046;50.930;13.334;2022-10-15T08:27:29;2.78;;;1.00;;
27632;SDS011;15046;50.930;13.334;2022-10-15T08:29:54;3.00;;;1.10;;
27632;SDS011;15046;50.930;13.334;2022-10-15T08:32:20;2.20;;;1.20;;
27632;SDS011;15046;50.930;13.334;2022-10-15T08:34:46;1.58;;;0.90;;
27632;SDS011;15046;50.930;13.334;2022-10-15T08:37:12;3.15;;;1.50;;
27632;SDS011;15046;50.930;13.334;2022-10-15T08:39:37;1.98;;;0.95;;
27632;SDS011;15046;50.930;13.334;2022-10-15T08:42:04;1.75;;;1.00;;
27632;SDS011;15046;50.930;13.334;2022-10-15T08:44:46;1.50;;;0.90;;
27632;SDS011;15046;50.930;13.334;2022-10-15T08:50:03;1.70;;;0.90;;
27632;SDS011;15046;50.930;13.334;2022-10-15T08:55:12;2.00;;;1.13;;
27632;SDS011;15046;50.930;13.334;2022-10-15T09:00:15;1.10;;;0.80;;
27632;SDS011;15046;50.930;13.334;2022-10-15T09:06:29;3.40;;;1.00;;
27632;SDS011;15046;50.930;13.334;2022-10-15T09:08:50;10.80;;;1.15;;
27632;SDS011;15046;50.930;13.334;2022-10-15T09:14:33;1.75;;;1.00;;
27632;SDS011;15046;50.930;13.334;2022-10-15T09:17:04;3.05;;;0.90;;
27632;SDS011;15046;50.930;13.334;2022-10-15T09:19:38;1.98;;;0.90;;
27632;SDS011;15046;50.930;13.334;2022-10-15T09:22:08;2.25;;;1.00;;
27632;SDS011;15046;50.930;13.334;2022-10-15T09:24:38;2.67;;;1.35;;
27632;SDS011;15046;50.930;13.334;2022-10-15T09:27:07;2.10;;;1.05;;
27632;SDS011;15046;50.930;13.334;2022-10-15T09:29:43;2.25;;;1.17;;
27632;SDS011;15046;50.930;13.334;2022-10-15T09:32:16;1.92;;;1.10;;
27632;SDS011;15046;50.930;13.334;2022-10-15T09:37:28;1.98;;;1.10;;
27632;SDS011;15046;50.930;13.334;2022-10-15T09:43:09;2.85;;;1.02;;
27632;SDS011;15046;50.930;13.334;2022-10-15T09:45:37;1.75;;;1.00;;
27632;SDS011;15046;50.930;13.334;2022-10-15T09:48:07;1.50;;;0.88;;
27632;SDS011;15046;50.930;13.334;2022-10-15T09:50:43;1.65;;;0.90;;
27632;SDS011;15046;50.930;13.334;2022-10-15T09:56:22;1.63;;;0.80;;
27632;SDS011;15046;50.930;13.334;2022-10-15T09:58:54;1.40;;;0.70;;
27632;SDS011;15046;50.930;13.334;2022-10-15T10:01:23;1.20;;;0.68;;
27632;SDS011;15046;50.930;13.334;2022-10-15T10:04:07;2.08;;;0.90;;
27632;SDS011;15046;50.930;13.334;2022-10-15T10:06:46;2.03;;;0.70;;
27632;SDS011;15046;50.930;13.334;2022-10-15T10:09:19;1.17;;;0.68;;
27632;SDS011;15046;50.930;13.334;2022-10-15T10:11:59;1.75;;;0.82;;
27632;SDS011;15046;50.930;13.334;2022-10-15T10:14:32;1.10;;;0.60;;
27632;SDS011;15046;50.930;13.334;2022-10-15T10:17:16;0.75;;;0.50;;
27632;SDS011;15046;50.930;13.334;2022-10-15T10:22:45;1.08;;;0.70;;
27632;SDS011;15046;50.930;13.334;2022-10-15T10:27:47;1.30;;;1.10;;
27632;SDS011;15046;50.930;13.334;2022-10-15T10:30:13;2.28;;;0.60;;
27632;SDS011;15046;50.930;13.334;2022-10-15T10:32:39;0.93;;;0.60;;
27632;SDS011;15046;50.930;13.334;2022-10-15T10:35:05;0.80;;;0.50;;
27632;SDS011;15046;50.930;13.334;2022-10-15T10:37:44;1.90;;;0.60;;
27632;SDS011;15046;50.930;13.334;2022-10-15T10:40:28;2.25;;;0.65;;
27632;SDS011;15046;50.930;13.334;2022-10-15T10:43:14;1.35;;;0.80;;
27632;SDS011;15046;50.930;13.334;2022-10-15T10:48:20;1.38;;;0.65;;
27632;SDS011;15046;50.930;13.334;2022-10-15T10:50:48;1.48;;;0.70;;
27632;SDS011;15046;50.930;13.334;2022-10-15T10:53:28;0.52;;;0.50;;
27632;SDS011;15046;50.930;13.334;2022-10-15T10:55:54;0.52;;;0.43;;
27632;SDS011;15046;50.930;13.334;2022-10-15T10:58:22;0.90;;;0.50;;
27632;SDS011;15046;50.930;13.334;2022-10-15T11:00:49;0.98;;;0.40;;
27632;SDS011;15046;50.930;13.334;2022-10-15T11:05:53;0.75;;;0.40;;
27632;SDS011;15046;50.930;13.334;2022-10-15T11:14:05;0.63;;;0.38;;
27632;SDS011;15046;50.930;13.334;2022-10-15T11:19:46;0.55;;;0.30;;
27632;SDS011;15046;50.930;13.334;2022-10-15T11:22:29;0.70;;;0.40;;
27632;SDS011;15046;50.930;13.334;2022-10-15T11:25:18;0.47;;;0.30;;
27632;SDS011;15046;50.930;13.334;2022-10-15T11:34:24;1.15;;;0.45;;
27632;SDS011;15046;50.930;13.334;2022-10-15T11:39:59;0.40;;;0.30;;
27632;SDS011;15046;50.930;13.334;2022-10-15T11:42:57;0.43;;;0.32;;
27632;SDS011;15046;50.930;13.334;2022-10-15T11:45:41;2.92;;;0.70;;
27632;SDS011;15046;50.930;13.334;2022-10-15T11:48:10;0.45;;;0.30;;
27632;SDS011;15046;50.930;13.334;2022-10-15T11:50:54;0.50;;;0.40;;
27632;SDS011;15046;50.930;13.334;2022-10-15T11:56:38;0.40;;;0.40;;
27632;SDS011;15046;50.930;13.334;2022-10-15T12:02:01;0.63;;;0.30;;
27632;SDS011;15046;50.930;13.334;2022-10-15T12:04:47;1.55;;;0.47;;
27632;SDS011;15046;50.930;13.334;2022-10-15T12:07:24;0.52;;;0.30;;
27632;SDS011;15046;50.930;13.334;2022-10-15T12:09:59;0.70;;;0.40;;
27632;SDS011;15046;50.930;13.334;2022-10-15T12:20:45;0.52;;;0.32;;
27632;SDS011;15046;50.930;13.334;2022-10-15T12:28:28;0.60;;;0.30;;
27632;SDS011;15046;50.930;13.334;2022-10-15T12:31:00;0.77;;;0.40;;
27632;SDS011;15046;50.930;13.334;2022-10-15T12:35:54;2.15;;;0.50;;
27632;SDS011;15046;50.930;13.334;2022-10-15T12:38:37;0.88;;;0.40;;
27632;SDS011;15046;50.930;13.334;2022-10-15T12:41:09;0.80;;;0.52;;
27632;SDS011;15046;50.930;13.334;2022-10-15T12:43:43;0.95;;;0.40;;
27632;SDS011;15046;50.930;13.334;2022-10-15T12:48:43;2.83;;;0.70;;
27632;SDS011;15046;50.930;13.334;2022-10-15T12:53:51;0.75;;;0.50;;
27632;SDS011;15046;50.930;13.334;2022-10-15T12:56:37;0.80;;;0.40;;
27632;SDS011;15046;50.930;13.334;2022-10-15T12:59:27;1.70;;;0.60;;
27632;SDS011;15046;50.930;13.334;2022-10-15T13:02:28;0.90;;;0.50;;
27632;SDS011;15046;50.930;13.334;2022-10-15T13:04:59;2.92;;;0.75;;
27632;SDS011;15046;50.930;13.334;2022-10-15T13:07:25;2.22;;;0.82;;
27632;SDS011;15046;50.930;13.334;2022-10-15T13:09:51;1.00;;;0.40;;
27632;SDS011;15046;50.930;13.334;2022-10-15T13:12:22;2.03;;;0.60;;
27632;SDS011;15046;50.930;13.334;2022-10-15T13:14:58;1.27;;;0.60;;
27632;SDS011;15046;50.930;13.334;2022-10-15T13:17:30;1.65;;;0.88;;
27632;SDS011;15046;50.930;13.334;2022-10-15T13:19:57;1.52;;;1.00;;
27632;SDS011;15046;50.930;13.334;2022-10-15T13:22:33;0.95;;;0.50;;
27632;SDS011;15046;50.930;13.334;2022-10-15T13:25:00;0.73;;;0.43;;
27632;SDS011;15046;50.930;13.334;2022-10-15T13:27:36;0.75;;;0.50;;
27632;SDS011;15046;50.930;13.334;2022-10-15T13:30:05;0.75;;;0.50;;
27632;SDS011;15046;50.930;13.334;2022-10-15T13:35:15;0.93;;;0.50;;
27632;SDS011;15046;50.930;13.334;2022-10-15T13:37:46;0.60;;;0.43;;
27632;SDS011;15046;50.930;13.334;2022-10-15T13:40:20;0.75;;;0.50;;
27632;SDS011;15046;50.930;13.334;2022-10-15T13:43:05;1.08;;;0.50;;
27632;SDS011;15046;50.930;13.334;2022-10-15T13:45:44;1.15;;;0.50;;
27632;SDS011;15046;50.930;13.334;2022-10-15T13:48:21;1.17;;;0.60;;
27632;SDS011;15046;50.930;13.334;2022-10-15T13:50:52;1.27;;;0.65;;
27632;SDS011;15046;50.930;13.334;2022-10-15T13:53:34;0.75;;;0.50;;
27632;SDS011;15046;50.930;13.334;2022-10-15T13:56:02;0.88;;;0.70;;
27632;SDS011;15046;50.930;13.334;2022-10-15T13:58:41;0.93;;;0.65;;
27632;SDS011;15046;50.930;13.334;2022-10-15T14:03:49;1.05;;;0.57;;
27632;SDS011;15046;50.930;13.334;2022-10-15T14:06:27;2.15;;;0.52;;
27632;SDS011;15046;50.930;13.334;2022-10-15T14:11:43;2.08;;;0.40;;
27632;SDS011;15046;50.930;13.334;2022-10-15T14:17:03;0.85;;;0.43;;
27632;SDS011;15046;50.930;13.334;2022-10-15T14:19:32;0.90;;;0.50;;
27632;SDS011;15046;50.930;13.334;2022-10-15T14:21:59;0.75;;;0.47;;
27632;SDS011;15046;50.930;13.334;2022-10-15T14:29:48;1.23;;;0.60;;
27632;SDS011;15046;50.930;13.334;2022-10-15T14:32:21;0.85;;;0.50;;
27632;SDS011;15046;50.930;13.334;2022-10-15T14:34:49;1.25;;;0.55;;
27632;SDS011;15046;50.930;13.334;2022-10-15T14:42:40;1.30;;;0.60;;
27632;SDS011;15046;50.930;13.334;2022-10-15T14:45:26;1.35;;;0.70;;
27632;SDS011;15046;50.930;13.334;2022-10-15T14:47:57;0.70;;;0.45;;
27632;SDS011;15046;50.930;13.334;2022-10-15T14:50:28;1.23;;;0.63;;
27632;SDS011;15046;50.930;13.334;2022-10-15T14:52:58;0.77;;;0.40;;
27632;SDS011;15046;50.930;13.334;2022-10-15T14:55:34;1.00;;;0.45;;
27632;SDS011;15046;50.930;13.334;2022-10-15T14:58:09;1.65;;;0.50;;
27632;SDS011;15046;50.930;13.334;2022-10-15T15:00:43;0.57;;;0.40;;
27632;SDS011;15046;50.930;13.334;2022-10-15T15:03:15;5.63;;;2.55;;
27632;SDS011;15046;50.930;13.334;2022-10-15T15:05:44;1.58;;;0.50;;
27632;SDS011;15046;50.930;13.334;2022-10-15T15:08:11;0.93;;;0.60;;
27632;SDS011;15046;50.930;13.334;2022-10-15T15:10:37;0.50;;;0.50;;
27632;SDS011;15046;50.930;13.334;2022-10-15T15:13:03;0.95;;;0.50;;
27632;SDS011;15046;50.930;13.334;2022-10-15T15:15:29;1.17;;;0.43;;
27632;SDS011;15046;50.930;13.334;2022-10-15T15:17:55;1.17;;;0.70;;
27632;SDS011;15046;50.930;13.334;2022-10-15T15:20:21;1.10;;;0.70;;
27632;SDS011;15046;50.930;13.334;2022-10-15T15:22:48;1.05;;;0.60;;
27632;SDS011;15046;50.930;13.334;2022-10-15T15:25:27;0.95;;;0.50;;
27632;SDS011;15046;50.930;13.334;2022-10-15T15:27:55;0.70;;;0.52;;
27632;SDS011;15046;50.930;13.334;2022-10-15T15:30:23;1.38;;;0.80;;
27632;SDS011;15046;50.930;13.334;2022-10-15T15:32:50;0.95;;;0.60;;
27632;SDS011;15046;50.930;13.334;2022-10-15T15:35:20;1.15;;;0.60;;
27632;SDS011;15046;50.930;13.334;2022-10-15T15:37:50;0.73;;;0.40;;
27632;SDS011;15046;50.930;13.334;2022-10-15T15:40:17;1.38;;;0.70;;
27632;SDS011;15046;50.930;13.334;2022-10-15T15:42:44;2.03;;;0.80;;
27632;SDS011;15046;50.930;13.334;2022-10-15T15:45:21;2.47;;;0.80;;
27632;SDS011;15046;50.930;13.334;2022-10-15T15:47:49;1.13;;;0.50;;
27632;SDS011;15046;50.930;13.334;2022-10-15T15:50:15;1.45;;;0.70;;
27632;SDS011;15046;50.930;13.334;2022-10-15T15:52:44;1.45;;;0.70;;
27632;SDS011;15046;50.930;13.334;2022-10-15T15:55:12;1.70;;;0.77;;
27632;SDS011;15046;50.930;13.334;2022-10-15T15:57:38;0.45;;;0.40;;
27632;SDS011;15046;50.930;13.334;2022-10-15T16:00:05;0.93;;;0.60;;
27632;SDS011;15046;50.930;13.334;2022-10-15T16:02:33;1.85;;;0.90;;
27632;SDS011;15046;50.930;13.334;2022-10-15T16:04:59;1.65;;;1.05;;
27632;SDS011;15046;50.930;13.334;2022-10-15T16:07:28;1.88;;;1.20;;
27632;SDS011;15046;50.930;13.334;2022-10-15T16:09:54;1.30;;;0.73;;
27632;SDS011;15046;50.930;13.334;2022-10-15T16:12:20;1.73;;;0.90;;
27632;SDS011;15046;50.930;13.334;2022-10-15T16:14:46;1.05;;;0.80;;
27632;SDS011;15046;50.930;13.334;2022-10-15T16:17:12;1.25;;;0.73;;
27632;SDS011;15046;50.930;13.334;2022-10-15T16:19:38;2.20;;;0.98;;
27632;SDS011;15046;50.930;13.334;2022-10-15T16:22:04;2.67;;;1.17;;
27632;SDS011;15046;50.930;13.334;2022-10-15T16:24:31;1.25;;;0.85;;
27632;SDS011;15046;50.930;13.334;2022-10-15T16:26:57;2.30;;;1.20;;
27632;SDS011;15046;50.930;13.334;2022-10-15T16:29:23;2.63;;;0.88;;
27632;SDS011;15046;50.930;13.334;2022-10-15T16:31:49;3.45;;;1.25;;
27632;SDS011;15046;50.930;13.334;2022-10-15T16:34:15;1.92;;;0.90;;
27632;SDS011;15046;50.930;13.334;2022-10-15T16:36:41;2.45;;;1.00;;
27632;SDS011;15046;50.930;13.334;2022-10-15T16:39:08;2.05;;;1.00;;
27632;SDS011;15046;50.930;13.334;2022-10-15T16:41:34;2.00;;;1.05;;